Terminal Aerodrome Forecast
Issued by NWS Grand Forks, ND

Home | Current Version | Previous Version | Text Only | Print | Product List | Glossary Off
Versions: 1 2 3 4 5 6 7 8 9 10 11 12 13 14 15 16 17

000
FTUS43 KFGF 212336
TAFFAR
TAF
KFAR 212336Z 2200/2224 15014KT P6SM SCT040
     FM220900 10006KT P6SM SCT050
     FM221100 07007KT P6SM BKN045
     FM221200 06007KT P6SM BKN030
     FM221400 08007KT P6SM BKN015
     FM221600 11008KT P6SM BKN010
     FM222100 15007KT P6SM BKN040=

USA.gov is the U.S. government's official web portal to all federal, state and local government web resources and services.